TimeCDT,TemperatureF,Dew PointF,Humidity,Sea Level PressureIn,VisibilityMPH,Wind Direction,Wind SpeedMPH,Gust SpeedMPH,PrecipitationIn,Events,Conditions,WindDirDegrees,DateUTC
12:14 AM,48.9,23.2,36,29.99,10.0,SSE,9.2,23.0,N/A,,Overcast,160,2012-10-13 05:14:00
12:34 AM,48.7,26.6,42,29.98,10.0,SSE,11.5,17.3,N/A,,Overcast,150,2012-10-13 05:34:00
1:14 AM,48.7,26.1,41,29.95,10.0,South,9.2,16.1,N/A,,Overcast,170,2012-10-13 06:14:00
2:14 AM,49.6,31.8,50,29.93,10.0,South,11.5,17.3,N/A,,Overcast,180,2012-10-13 07:14:00
2:34 AM,49.5,36.1,60,29.93,10.0,South,9.2,18.4,N/A,,Overcast,180,2012-10-13 07:34:00
3:34 AM,48.2,39.6,72,29.88,10.0,South,9.2,-,N/A,,Overcast,170,2012-10-13 08:34:00
3:54 AM,47.8,40.1,75,29.86,10.0,South,6.9,-,N/A,,Overcast,170,2012-10-13 08:54:00
4:14 AM,47.7,40.5,76,29.86,10.0,South,8.1,-,N/A,,Overcast,170,2012-10-13 09:14:00
4:34 AM,47.7,40.5,76,29.87,10.0,South,8.1,-,N/A,,Overcast,170,2012-10-13 09:34:00
5:34 AM,48.2,39.2,71,29.85,10.0,South,5.8,-,N/A,,Overcast,170,2012-10-13 10:34:00
5:53 AM,48.2,39.2,71,29.83,10.0,South,5.8,-,N/A,,Overcast,170,2012-10-13 10:53:00
6:14 AM,48.2,39.2,71,29.83,10.0,South,4.6,-,N/A,,Overcast,170,2012-10-13 11:14:00
6:34 AM,48.2,39.7,73,29.82,10.0,South,6.9,-,N/A,,Overcast,170,2012-10-13 11:34:00
6:54 AM,48.2,40.1,74,29.82,10.0,SSE,6.9,-,N/A,,Overcast,160,2012-10-13 11:54:00
7:14 AM,48.2,40.5,75,29.82,10.0,SSE,6.9,-,N/A,,Overcast,160,2012-10-13 12:14:00
7:54 AM,48.4,41.9,78,29.79,10.0,South,5.8,-,N/A,,Overcast,170,2012-10-13 12:54:00
8:14 AM,48.6,42.8,80,29.78,10.0,South,4.6,-,N/A,,Overcast,170,2012-10-13 13:14:00
8:34 AM,48.7,43.2,81,29.77,10.0,SSE,4.6,-,N/A,,Overcast,160,2012-10-13 13:34:00
9:14 AM,49.1,45.0,86,29.77,10.0,South,6.9,-,N/A,,Overcast,170,2012-10-13 14:14:00
9:34 AM,49.1,45.5,87,29.76,10.0,SSE,5.8,-,N/A,,Overcast,160,2012-10-13 14:34:00
9:54 AM,49.1,45.5,87,29.77,10.0,SSE,6.9,-,N/A,,Overcast,160,2012-10-13 14:54:00
10:13 AM,49.5,46.4,89,29.76,7.0,SSE,3.5,-,N/A,,Overcast,150,2012-10-13 15:13:00
10:54 AM,50.4,47.1,89,29.76,7.0,SSE,4.6,-,N/A,,Overcast,160,2012-10-13 15:54:00
11:34 AM,49.3,48.0,95,29.75,2.0,SSE,4.6,-,N/A,,Overcast,150,2012-10-13 16:34:00
11:54 AM,49.6,48.2,95,29.75,3.0,SSE,3.5,-,N/A,,Overcast,150,2012-10-13 16:54:00
12:14 PM,49.8,48.2,94,29.74,3.0,SSE,3.5,-,N/A,,Overcast,160,2012-10-13 17:14:00
12:34 PM,50.0,48.6,95,29.74,2.5,Calm,Calm,-,N/A,,Overcast,0,2012-10-13 17:34:00
12:54 PM,50.0,49.1,97,29.73,2.5,SE,3.5,-,N/A,,Overcast,130,2012-10-13 17:54:00
1:14 PM,50.4,49.1,95,29.72,4.0,ESE,4.6,-,N/A,,Overcast,120,2012-10-13 18:14:00
1:34 PM,50.4,49.1,95,29.72,3.0,Calm,Calm,-,N/A,,Overcast,0,2012-10-13 18:34:00
1:54 PM,50.5,49.3,95,29.71,7.0,East,3.5,-,N/A,,Overcast,100,2012-10-13 18:54:00
2:14 PM,50.9,49.3,94,29.71,7.0,Calm,Calm,-,N/A,,Overcast,0,2012-10-13 19:14:00
2:34 PM,50.9,49.1,94,29.70,10.0,Calm,Calm,-,N/A,,Overcast,0,2012-10-13 19:34:00
2:54 PM,51.6,49.5,92,29.70,7.0,North,3.5,-,N/A,,Overcast,10,2012-10-13 19:54:00
3:14 PM,52.0,49.5,91,29.70,10.0,Calm,Calm,-,N/A,,Overcast,0,2012-10-13 20:14:00
3:34 PM,52.0,49.5,91,29.70,10.0,Calm,Calm,-,N/A,,Overcast,0,2012-10-13 20:34:00
3:54 PM,52.5,49.5,89,29.69,10.0,Calm,Calm,-,N/A,,Overcast,0,2012-10-13 20:54:00
4:14 PM,52.7,50.0,91,29.70,10.0,Calm,Calm,-,N/A,,Overcast,0,2012-10-13 21:14:00
4:54 PM,52.3,49.6,91,29.70,7.0,Calm,Calm,-,N/A,,Overcast,0,2012-10-13 21:54:00
5:14 PM,53.1,50.0,89,29.70,7.0,Calm,Calm,-,N/A,,Overcast,0,2012-10-13 22:14:00
5:34 PM,52.7,49.6,89,29.70,10.0,Calm,Calm,-,N/A,,Overcast,0,2012-10-13 22:34:00
5:54 PM,52.7,49.8,90,29.70,7.0,Calm,Calm,-,N/A,,Overcast,0,2012-10-13 22:54:00
6:14 PM,52.7,50.0,91,29.72,7.0,Calm,Calm,-,N/A,,Overcast,0,2012-10-13 23:14:00
6:34 PM,52.0,49.8,92,29.72,7.0,ENE,3.5,-,N/A,,Overcast,60,2012-10-13 23:34:00
7:54 PM,51.8,49.3,91,29.74,7.0,NE,4.6,-,N/A,,Overcast,50,2012-10-14 00:54:00
8:14 PM,51.3,49.1,92,29.75,7.0,East,5.8,-,N/A,,Overcast,80,2012-10-14 01:14:00
8:34 PM,50.9,49.1,94,29.76,5.0,East,4.6,-,N/A,,Overcast,90,2012-10-14 01:34:00
9:14 PM,50.4,49.1,95,29.78,5.0,East,3.5,-,N/A,,Overcast,80,2012-10-14 02:14:00
9:34 PM,50.0,48.4,94,29.77,5.0,ENE,4.6,-,N/A,,Overcast,70,2012-10-14 02:34:00
9:54 PM,49.3,47.8,95,29.76,7.0,ENE,4.6,-,N/A,,Overcast,60,2012-10-14 02:54:00
10:14 PM,48.2,47.3,97,29.77,5.0,Calm,Calm,-,N/A,,Scattered Clouds,0,2012-10-14 03:14:00
10:34 PM,47.1,46.4,97,29.77,4.0,Calm,Calm,-,N/A,,Clear,0,2012-10-14 03:34:00
10:54 PM,44.8,44.1,97,29.77,2.0,NE,3.5,-,N/A,,Clear,50,2012-10-14 03:54:00
11:14 PM,43.5,43.2,99,29.76,0.2,Calm,Calm,-,N/A,Fog,Fog,0,2012-10-14 04:14:00
11:34 PM,43.3,43.3,100,29.77,0.2,ENE,3.5,-,N/A,Fog,Fog,70,2012-10-14 04:34:00